WetterOnline ( https://www.wetteronline.de )

Wetter aktuell Koblenz

Aktuelles Wetter: Andernach (75m)

6-stündlich | Neueste Meldungen
Ortszeit Temperatur Wetter
Sa, 27.11. 7:00 3.5° C leichter Regen
Sa, 27.11. 1:00 3.8° C bedeckt
Fr, 26.11. 19:00 4.7° C bedeckt
Fr, 26.11. 13:00 5.5° C bewölkt
Fr, 26.11. 7:00 2.9° C bedeckt
Fr, 26.11. 1:00 3.9° C bedeckt
Do, 25.11. 19:00 4.9° C bedeckt
Do, 25.11. 13:00 5.7° C bewölkt
Ortszeit Temperatur Wetter
Sa, 27.11. 11:30 5.2° C fast wolkenlos
Sa, 27.11. 11:20 5.2° C fast wolkenlos
Sa, 27.11. 11:10 5.4° C leicht bewölkt
Sa, 27.11. 11:00 4.7° C wolkig
Sa, 27.11. 10:50 4.7° C wolkig
Sa, 27.11. 10:40 4.4° C bewölkt
Sa, 27.11. 10:30 4.8° C bedeckt
Sa, 27.11. 10:00 3.8° C bewölkt
Sa, 27.11. 9:30 3.1° C wolkig
Sa, 27.11. 9:00 3.0° C bedeckt
Sa, 27.11. 8:30 3.0° C bedeckt
Ortszeit Relative Feuchte Sichtweite
Sa, 27.11. 7:00 86% -
Sa, 27.11. 1:00 82% >70 km
Fr, 26.11. 19:00 72% 45 km
Fr, 26.11. 13:00 75% 35 km
Fr, 26.11. 7:00 87% 19 km
Fr, 26.11. 1:00 87% 18 km
Do, 25.11. 19:00 71% 35 km
Do, 25.11. 13:00 64% 40 km
Ortszeit Relative Feuchte Sichtweite
Sa, 27.11. 11:30 71% 50 km
Sa, 27.11. 11:20 71% -
Sa, 27.11. 11:10 72% -
Sa, 27.11. 11:00 74% 60 km
Sa, 27.11. 10:50 74% -
Sa, 27.11. 10:40 77% -
Sa, 27.11. 10:30 76% 60 km
Sa, 27.11. 10:00 85% 40 km
Sa, 27.11. 9:30 88% 60 km
Sa, 27.11. 9:00 90% 60 km
Sa, 27.11. 8:30 90% 50 km
Ortszeit Niederschlagsmenge Niederschlagsart
Sa, 27.11. 7:00 0.1 l/m2 in 12 Std. Regen
Sa, 27.11. 1:00 0.1 l/m2 in 6 Std. Regen
Fr, 26.11. 19:00 0.1 l/m2 in 12 Std. Regen
Fr, 26.11. 13:00 0.1 l/m2 in 6 Std. Regen
Fr, 26.11. 7:00 0.1 l/m2 in 12 Std. Sprühregen
Fr, 26.11. 1:00 0.1 l/m2 in 6 Std. Regen
Do, 25.11. 19:00 0.1 l/m2 in 12 Std. Regen
Do, 25.11. 13:00 0.0 l/m2 in 6 Std. -
Ortszeit Niederschlagsmenge Niederschlagsart
Sa, 27.11. 11:30 0.0 l/m2 in 1 Std. -
Sa, 27.11. 11:20 keine Meldung -
Sa, 27.11. 11:10 keine Meldung -
Sa, 27.11. 11:00 0.0 l/m2 in 1 Std. -
Sa, 27.11. 10:50 keine Meldung -
Sa, 27.11. 10:40 keine Meldung -
Sa, 27.11. 10:30 0.0 l/m2 in 1 Std. -
Sa, 27.11. 10:00 0.0 l/m2 in 1 Std. Regen
Sa, 27.11. 9:30 0.0 l/m2 in 1 Std. -
Sa, 27.11. 9:00 0.1 l/m2 in 1 Std. Regen
Sa, 27.11. 8:30 0.1 l/m2 in 1 Std. Schneeregen
Ortszeit Stärke Spitze Richtung
km/h Bft. km/h Grad Sektor
Sa, 27.11. 7:00 7 2 25 250° W
Sa, 27.11. 1:00 7 2 36 160° S
Fr, 26.11. 19:00 13 3 39 160° S
Fr, 26.11. 13:00 14 3 29 210° SW
Fr, 26.11. 7:00 4 1 7 110° O
Fr, 26.11. 1:00 4 1 11 160° S
Do, 25.11. 19:00 7 2 14 230° SW
Do, 25.11. 13:00 2 1 9 250° W
Ortszeit Stärke Spitze Richtung
km/h Bft. km/h Grad Sektor
Sa, 27.11. 11:30 13 3 19 200° S
Sa, 27.11. 11:20 13 3 - 200° S
Sa, 27.11. 11:10 11 2 - 200° S
Sa, 27.11. 11:00 7 2 14 210° SW
Sa, 27.11. 10:50 7 2 - 210° SW
Sa, 27.11. 10:40 6 1 - 190° S
Sa, 27.11. 10:30 4 1 11 230° SW
Sa, 27.11. 10:00 4 1 7 220° SW
Sa, 27.11. 9:30 2 1 6 110° O
Sa, 27.11. 9:00 2 1 7 300° NW
Sa, 27.11. 8:30 4 1 7 180° S
Ortszeit Untergrenze Bedeckung Gattung
total tief tief mittel hoch
Sa, 27.11. 7:00 630 m 8/8 7/8 - - -
Sa, 27.11. 1:00 450 m 8/8 8/8 - - -
Fr, 26.11. 19:00 750 m 8/8 8/8 - - -
Fr, 26.11. 13:00 1260 m 7/8 7/8 - - -
Fr, 26.11. 7:00 1380 m 8/8 8/8 - - -
Fr, 26.11. 1:00 360 m 8/8 8/8 - - -
Do, 25.11. 19:00 600 m 8/8 8/8 - - -
Do, 25.11. 13:00 690 m 7/8 7/8 - - -
Ortszeit Bedeckungsgrad in Achtel und Wolkenuntergrenze
Sa, 27.11. 11:30 1(2100m)
Sa, 27.11. 11:20 1(2100m)
Sa, 27.11. 11:10 3(2100m)
Sa, 27.11. 11:00 2(1200m) 6(2100m)
Sa, 27.11. 10:50 2(1200m) 6(2100m)
Sa, 27.11. 10:40 5(1170m) 7(2100m)
Sa, 27.11. 10:30 8(1110m)
Sa, 27.11. 10:00 7(1020m) 8(4800m)
Sa, 27.11. 9:30 3(810m) 6(1020m)
Sa, 27.11. 9:00 3(840m) 8(2100m) 8(4200m)
Sa, 27.11. 8:30 3(930m) 7(1800m) 8(2100m)
Ortszeit Luftdruck NN (hPa) Tendenz (hPa in 3 Std.)
Sa, 27.11. 7:00 987 + 1,2
Sa, 27.11. 1:00 987 - 1,7
Fr, 26.11. 19:00 991 - 3,4
Fr, 26.11. 13:00 998 - 3,3
Fr, 26.11. 7:00 1004 - 2,5
Fr, 26.11. 1:00 1009 - 1,7
Do, 25.11. 19:00 1011 - 0,1
Do, 25.11. 13:00 1012 - 0,9
Ortszeit Luftdruck NN (hPa) Tendenz (hPa in 3 Std.)
Sa, 27.11. 11:30 991 + 2,4
Sa, 27.11. 11:20 991 keine Meldung
Sa, 27.11. 11:10 991 keine Meldung
Sa, 27.11. 11:00 991 + 2,6
Sa, 27.11. 10:50 991 keine Meldung
Sa, 27.11. 10:40 991 keine Meldung
Sa, 27.11. 10:30 990 + 2,6
Sa, 27.11. 10:00 990 + 2,5
Sa, 27.11. 9:30 990 + 2,4
Sa, 27.11. 9:00 989 + 2,4
Sa, 27.11. 8:30 989 + 2,3
Ortszeit Schneehöhe (cm)
Sa, 27.11. 7:00 0
Sa, 27.11. 1:00 0
Fr, 26.11. 19:00 0
Fr, 26.11. 13:00 0
Fr, 26.11. 7:00 0
Fr, 26.11. 1:00 0
Do, 25.11. 19:00 0
Do, 25.11. 13:00 0
Ortszeit Schneehöhe (cm)
Sa, 27.11. 11:30 0
Sa, 27.11. 11:20 0
Sa, 27.11. 11:10 0
Sa, 27.11. 11:00 0
Sa, 27.11. 10:50 0
Sa, 27.11. 10:40 0
Sa, 27.11. 10:30 0
Sa, 27.11. 10:00 0
Sa, 27.11. 9:30 0
Sa, 27.11. 9:00 0
Sa, 27.11. 8:30 0
Link zu dieser Seite / Seite empfehlen

Das Wetter in ...